createdAt,value
2017-12-06T00:00:08.111Z,22.40
2017-12-06T00:01:08.084Z,24.00
2017-12-06T00:02:08.071Z,25.20
2017-12-06T00:03:08.057Z,23.50
2017-12-06T00:04:08.032Z,22.90
2017-12-06T00:05:08.011Z,22.10
2017-12-06T00:06:08.001Z,23.90
2017-12-06T00:07:07.979Z,22.80
2017-12-06T00:08:07.956Z,22.90
2017-12-06T00:09:07.944Z,27.60
2017-12-06T00:10:07.927Z,26.90
2017-12-06T00:11:07.907Z,26.60
2017-12-06T00:12:07.885Z,25.30
2017-12-06T00:13:07.874Z,23.70
2017-12-06T00:14:07.849Z,24.20
2017-12-06T00:15:07.830Z,22.10
2017-12-06T00:16:07.817Z,23.00
2017-12-06T00:17:07.795Z,22.80
2017-12-06T00:18:07.775Z,23.40
2017-12-06T00:19:07.757Z,21.30
2017-12-06T00:20:07.740Z,21.70
2017-12-06T00:21:07.726Z,19.40
2017-12-06T00:22:07.701Z,20.40
2017-12-06T00:23:07.684Z,21.00
2017-12-06T00:24:07.667Z,20.80
2017-12-06T00:25:07.647Z,21.10
2017-12-06T00:26:07.634Z,21.30
2017-12-06T00:27:07.622Z,21.80
2017-12-06T00:28:07.595Z,20.60
2017-12-06T00:29:07.576Z,20.60
2017-12-06T00:30:07.562Z,31.30
2017-12-06T00:31:07.540Z,22.70
2017-12-06T00:32:07.520Z,20.70
2017-12-06T00:33:07.508Z,20.60
2017-12-06T00:34:07.486Z,20.20
2017-12-06T00:35:07.467Z,21.00
2017-12-06T00:36:07.457Z,21.80
2017-12-06T00:37:07.436Z,21.50
2017-12-06T00:38:07.414Z,27.30
2017-12-06T00:39:07.395Z,22.10
2017-12-06T00:40:07.376Z,21.60
2017-12-06T00:41:07.357Z,22.30
2017-12-06T00:42:07.338Z,23.10
2017-12-06T00:43:07.327Z,21.70
2017-12-06T00:44:07.301Z,21.10
2017-12-06T00:45:07.283Z,22.60
2017-12-06T00:46:07.264Z,20.60
2017-12-06T00:47:07.246Z,19.90
2017-12-06T00:48:07.230Z,21.40
2017-12-06T00:49:07.214Z,21.30
2017-12-06T00:50:07.192Z,21.20
2017-12-06T00:51:07.177Z,21.90
2017-12-06T00:52:07.158Z,21.20
2017-12-06T00:53:07.146Z,22.20
2017-12-06T00:54:07.123Z,29.20
2017-12-06T00:55:07.101Z,27.50
2017-12-06T00:56:07.084Z,24.20
2017-12-06T00:57:07.065Z,23.10
2017-12-06T00:58:07.046Z,21.80
2017-12-06T00:59:07.030Z,21.80
2017-12-06T01:00:07.013Z,20.90
2017-12-06T01:01:06.992Z,22.10
2017-12-06T01:02:06.973Z,20.60
2017-12-06T01:03:06.955Z,20.50
2017-12-06T01:04:06.935Z,20.10
2017-12-06T01:05:06.926Z,20.90
2017-12-06T01:06:06.901Z,22.30
2017-12-06T01:07:06.888Z,20.50
2017-12-06T01:08:06.862Z,21.10
2017-12-06T01:09:06.843Z,20.70
2017-12-06T01:10:06.882Z,21.00
2017-12-06T01:11:06.809Z,20.80
2017-12-06T01:12:06.791Z,20.40
2017-12-06T01:13:06.772Z,21.10
2017-12-06T01:14:06.754Z,20.70
2017-12-06T01:15:06.737Z,19.70
2017-12-06T01:16:06.723Z,20.10
2017-12-06T01:17:06.704Z,21.30
2017-12-06T01:18:06.680Z,21.80
2017-12-06T01:19:06.663Z,20.80
2017-12-06T01:20:06.644Z,19.90
2017-12-06T01:21:06.628Z,20.90
2017-12-06T01:22:06.609Z,21.00
2017-12-06T01:23:06.596Z,20.00
2017-12-06T01:24:06.571Z,19.60
2017-12-06T01:25:06.554Z,20.40
2017-12-06T01:26:06.535Z,22.00
2017-12-06T01:27:06.516Z,21.90
2017-12-06T01:28:06.498Z,20.00
2017-12-06T01:29:06.481Z,20.20
2017-12-06T01:30:06.461Z,20.00
2017-12-06T01:31:06.444Z,21.10
2017-12-06T01:32:06.452Z,20.60
2017-12-06T01:33:06.406Z,22.00
2017-12-06T01:34:06.391Z,20.60
2017-12-06T01:35:06.372Z,20.40
2017-12-06T01:36:06.352Z,21.60
2017-12-06T01:37:06.337Z,20.90
2017-12-06T01:38:06.320Z,22.00
2017-12-06T01:39:06.304Z,21.20
2017-12-06T01:40:06.284Z,20.40
2017-12-06T01:41:06.266Z,18.60
2017-12-06T01:42:06.249Z,22.20
2017-12-06T01:43:06.227Z,21.10
2017-12-06T01:44:06.209Z,20.30
2017-12-06T01:45:06.195Z,20.20
2017-12-06T01:46:06.172Z,21.30
2017-12-06T01:47:06.153Z,21.00
2017-12-06T01:48:06.140Z,19.50
2017-12-06T01:49:06.118Z,20.70
2017-12-06T01:50:06.098Z,18.80
2017-12-06T01:51:06.086Z,20.10
2017-12-06T01:52:06.063Z,19.40
2017-12-06T01:53:06.044Z,19.70
2017-12-06T01:54:06.025Z,19.30
2017-12-06T01:55:06.010Z,20.20
2017-12-06T01:56:05.993Z,21.30
2017-12-06T01:57:05.978Z,20.60
2017-12-06T01:58:05.953Z,20.10
2017-12-06T01:59:05.943Z,20.20
2017-12-06T02:00:05.916Z,19.40
2017-12-06T02:01:05.900Z,21.50
2017-12-06T02:02:05.886Z,21.90
2017-12-06T02:03:05.862Z,21.30
2017-12-06T02:04:05.850Z,19.80
2017-12-06T02:05:05.829Z,18.70
2017-12-06T02:06:05.808Z,19.90
2017-12-06T02:07:05.794Z,19.40
2017-12-06T02:08:05.780Z,19.40
2017-12-06T02:09:05.756Z,19.50
2017-12-06T02:10:05.743Z,19.70
2017-12-06T02:11:05.722Z,21.00
2017-12-06T02:12:05.700Z,23.00
2017-12-06T02:13:05.684Z,19.90
2017-12-06T02:14:05.668Z,21.70
2017-12-06T02:15:05.643Z,22.50
2017-12-06T02:16:05.625Z,21.00
2017-12-06T02:17:05.608Z,21.50
2017-12-06T02:18:05.594Z,20.70
2017-12-06T02:19:05.571Z,20.50
2017-12-06T02:20:05.553Z,21.40
2017-12-06T02:21:05.537Z,21.30
2017-12-06T02:22:05.515Z,20.90
2017-12-06T02:23:05.496Z,20.40
2017-12-06T02:24:05.481Z,20.90
2017-12-06T02:25:05.466Z,20.80
2017-12-06T02:26:05.448Z,18.50
2017-12-06T02:27:05.425Z,19.10
2017-12-06T02:28:05.406Z,19.40
2017-12-06T02:29:05.394Z,19.70
2017-12-06T02:30:05.369Z,20.20
2017-12-06T02:31:05.352Z,18.80
2017-12-06T02:32:05.336Z,19.50
2017-12-06T02:33:05.313Z,19.20
2017-12-06T02:34:05.295Z,19.70
2017-12-06T02:35:05.281Z,19.70
2017-12-06T02:36:05.259Z,20.00
2017-12-06T02:37:05.244Z,19.00
2017-12-06T02:38:05.232Z,18.40
2017-12-06T02:39:05.205Z,19.70
2017-12-06T02:40:05.191Z,20.10
2017-12-06T02:41:05.173Z,20.20
2017-12-06T02:42:05.147Z,22.80
2017-12-06T02:43:05.135Z,22.90
2017-12-06T02:44:05.113Z,22.20
2017-12-06T02:45:05.094Z,21.50
2017-12-06T02:46:05.083Z,20.20
2017-12-06T02:47:05.064Z,23.10
2017-12-06T02:48:05.037Z,24.70
2017-12-06T02:49:05.022Z,25.70
2017-12-06T02:50:05.006Z,23.30
2017-12-06T02:51:04.982Z,22.30
2017-12-06T02:52:04.963Z,20.80
2017-12-06T02:53:04.942Z,20.70
2017-12-06T02:54:04.923Z,21.60
2017-12-06T02:55:04.912Z,21.70
2017-12-06T02:56:04.893Z,20.30
2017-12-06T02:57:04.874Z,21.40
2017-12-06T02:58:04.854Z,23.70
2017-12-06T02:59:04.833Z,22.50
2017-12-06T03:00:04.812Z,21.40
2017-12-06T03:01:04.792Z,20.30
2017-12-06T03:02:04.774Z,20.50
2017-12-06T03:03:04.755Z,20.50
2017-12-06T03:04:04.735Z,22.20
2017-12-06T03:05:04.716Z,20.00
2017-12-06T03:06:04.697Z,21.10
2017-12-06T03:07:04.686Z,20.20
2017-12-06T03:08:04.662Z,20.90
2017-12-06T03:09:04.642Z,21.50
2017-12-06T03:10:04.621Z,22.60
2017-12-06T03:11:04.610Z,24.30
2017-12-06T03:12:04.590Z,23.10
2017-12-06T03:13:04.575Z,24.20
2017-12-06T03:14:04.601Z,22.80
2017-12-06T03:15:04.532Z,21.70
2017-12-06T03:16:04.517Z,21.80
2017-12-06T03:17:04.496Z,22.60
2017-12-06T03:18:04.472Z,28.00
2017-12-06T03:19:04.455Z,24.10
2017-12-06T03:20:04.440Z,22.70
2017-12-06T03:21:04.417Z,21.00
2017-12-06T03:22:04.397Z,20.60
2017-12-06T03:23:04.379Z,20.00
2017-12-06T03:24:04.359Z,19.50
2017-12-06T03:25:04.343Z,19.70
2017-12-06T03:26:04.321Z,19.60
2017-12-06T03:27:04.303Z,19.60
2017-12-06T03:28:04.283Z,19.40
2017-12-06T03:29:04.271Z,20.80
2017-12-06T03:30:04.252Z,22.10
2017-12-06T03:31:04.248Z,20.60
2017-12-06T03:32:04.210Z,18.90
2017-12-06T03:33:04.189Z,20.10
2017-12-06T03:34:04.173Z,20.70
2017-12-06T03:35:04.153Z,19.00
2017-12-06T03:36:04.135Z,19.80
2017-12-06T03:37:04.116Z,18.90
2017-12-06T03:38:04.096Z,19.20
2017-12-06T03:39:04.085Z,19.30
2017-12-06T03:40:04.062Z,20.40
2017-12-06T03:41:04.045Z,18.90
2017-12-06T03:42:04.031Z,20.30
2017-12-06T03:43:04.011Z,19.90
2017-12-06T03:44:03.995Z,19.30
2017-12-06T03:45:03.972Z,21.10
2017-12-06T03:46:03.950Z,19.40
2017-12-06T03:47:03.936Z,19.50
2017-12-06T03:48:03.922Z,19.60
2017-12-06T03:49:03.906Z,19.90
2017-12-06T03:50:03.876Z,19.40
2017-12-06T03:51:03.860Z,19.90
2017-12-06T03:52:03.841Z,19.00
2017-12-06T03:53:03.827Z,20.00
2017-12-06T03:54:03.806Z,19.30
2017-12-06T03:55:03.787Z,19.30
2017-12-06T03:56:03.774Z,18.70
2017-12-06T03:57:03.751Z,18.60
2017-12-06T03:58:03.735Z,19.40
2017-12-06T03:59:03.714Z,19.90
2017-12-06T04:00:03.696Z,18.90
2017-12-06T04:01:03.676Z,20.30
2017-12-06T04:02:03.660Z,20.00
2017-12-06T04:03:03.638Z,20.80
2017-12-06T04:04:03.620Z,20.20
2017-12-06T04:05:03.608Z,20.70
2017-12-06T04:06:03.586Z,20.70
2017-12-06T04:07:03.569Z,19.50
2017-12-06T04:08:03.547Z,19.90
2017-12-06T04:09:03.532Z,19.00
2017-12-06T04:10:03.507Z,20.40
2017-12-06T04:11:03.489Z,19.40
2017-12-06T04:12:03.473Z,19.70
2017-12-06T04:13:03.454Z,18.60
2017-12-06T04:14:03.440Z,20.40
2017-12-06T04:15:03.422Z,19.90
2017-12-06T04:16:03.402Z,19.40
2017-12-06T04:17:03.381Z,19.80
2017-12-06T04:18:03.358Z,20.20
2017-12-06T04:19:03.340Z,20.20
2017-12-06T04:20:03.328Z,19.80
2017-12-06T04:21:03.305Z,19.90
2017-12-06T04:22:03.285Z,20.20
2017-12-06T04:23:03.268Z,18.70
2017-12-06T04:24:03.247Z,19.70
2017-12-06T04:25:03.235Z,20.90
2017-12-06T04:26:03.212Z,20.00
2017-12-06T04:27:03.191Z,18.70
2017-12-06T04:28:03.173Z,20.40
2017-12-06T04:29:03.159Z,18.00
2017-12-06T04:30:03.136Z,19.50
2017-12-06T04:31:03.116Z,18.80
2017-12-06T04:32:03.101Z,19.60
2017-12-06T04:33:03.084Z,19.30
2017-12-06T04:34:03.065Z,18.70
2017-12-06T04:35:03.050Z,18.80
2017-12-06T04:36:03.024Z,18.30
2017-12-06T04:37:03.008Z,19.30
2017-12-06T04:38:02.987Z,18.70
2017-12-06T04:39:02.973Z,19.70
2017-12-06T04:40:02.950Z,19.20
2017-12-06T04:41:02.931Z,18.70
2017-12-06T04:42:02.914Z,18.60
2017-12-06T04:43:02.895Z,18.00
2017-12-06T04:44:02.878Z,19.10
2017-12-06T04:45:02.859Z,19.30
2017-12-06T04:46:02.840Z,19.60
2017-12-06T04:47:02.829Z,20.80
2017-12-06T04:48:02.808Z,19.80
2017-12-06T04:49:02.785Z,19.40
2017-12-06T04:50:02.768Z,18.70
2017-12-06T04:51:02.753Z,20.10
2017-12-06T04:52:02.729Z,20.70
2017-12-06T04:53:02.715Z,19.80
2017-12-06T04:54:02.691Z,21.20
2017-12-06T04:55:02.679Z,19.80
2017-12-06T04:56:02.655Z,19.70
2017-12-06T04:57:02.639Z,20.10
2017-12-06T04:58:02.620Z,19.70
2017-12-06T04:59:02.600Z,20.20
2017-12-06T05:00:02.594Z,20.20
2017-12-06T05:01:02.573Z,19.90
2017-12-06T05:02:02.547Z,19.50
2017-12-06T05:03:02.530Z,19.40
2017-12-06T05:04:02.511Z,20.50
2017-12-06T05:05:02.492Z,20.20
2017-12-06T05:06:02.479Z,20.10
2017-12-06T05:07:02.462Z,18.70
2017-12-06T05:08:02.447Z,18.20
2017-12-06T05:09:02.420Z,20.00
2017-12-06T05:10:02.402Z,20.70
2017-12-06T05:11:02.387Z,20.40
2017-12-06T05:12:02.369Z,20.50
2017-12-06T05:13:02.347Z,21.20
2017-12-06T05:14:02.334Z,20.80
2017-12-06T05:15:02.311Z,19.40
2017-12-06T05:16:02.299Z,19.50
2017-12-06T05:17:02.275Z,19.20
2017-12-06T05:18:02.256Z,18.30
2017-12-06T05:19:02.238Z,19.10
2017-12-06T05:20:02.219Z,19.00
2017-12-06T05:21:02.206Z,19.80
2017-12-06T05:22:02.183Z,19.80
2017-12-06T05:23:02.164Z,19.80
2017-12-06T05:24:02.150Z,20.30
2017-12-06T05:25:02.128Z,20.80
2017-12-06T05:26:02.110Z,20.10
2017-12-06T05:27:02.092Z,19.20
2017-12-06T05:28:02.082Z,18.40
2017-12-06T05:29:02.056Z,18.20
2017-12-06T05:30:02.046Z,19.20
2017-12-06T05:31:02.019Z,18.80
2017-12-06T05:32:02.001Z,19.60
2017-12-06T05:33:01.988Z,19.10
2017-12-06T05:34:01.971Z,19.30
2017-12-06T05:35:01.948Z,18.70
2017-12-06T05:36:01.934Z,17.70
2017-12-06T05:37:01.916Z,18.60
2017-12-06T05:38:01.892Z,19.10
2017-12-06T05:39:01.883Z,19.20
2017-12-06T05:40:01.857Z,18.50
2017-12-06T05:41:01.838Z,18.90
2017-12-06T05:42:01.820Z,18.90
2017-12-06T05:43:01.801Z,19.00
2017-12-06T05:44:01.806Z,19.50
2017-12-06T05:45:01.766Z,19.70
2017-12-06T05:46:01.746Z,18.90
2017-12-06T05:47:01.730Z,18.50
2017-12-06T05:48:01.717Z,19.60
2017-12-06T05:49:01.693Z,19.40
2017-12-06T05:50:01.676Z,19.70
2017-12-06T05:51:01.662Z,19.50
2017-12-06T05:52:01.639Z,18.30
2017-12-06T05:53:01.622Z,18.40
2017-12-06T05:54:01.602Z,18.70
2017-12-06T05:55:01.593Z,18.60
2017-12-06T05:56:01.570Z,17.90
2017-12-06T05:57:01.556Z,20.00
2017-12-06T05:58:01.529Z,19.10
2017-12-06T05:59:01.518Z,17.50
2017-12-06T06:00:01.501Z,19.20
2017-12-06T06:01:01.476Z,18.10
2017-12-06T06:02:01.454Z,19.30
2017-12-06T06:03:01.437Z,18.40
2017-12-06T06:04:01.420Z,17.60
2017-12-06T06:05:01.401Z,18.50
2017-12-06T06:06:01.383Z,17.40
2017-12-06T06:07:01.365Z,18.40
2017-12-06T06:08:01.350Z,18.60
2017-12-06T06:09:01.345Z,18.30
2017-12-06T06:10:01.310Z,18.70
2017-12-06T06:11:01.298Z,18.30
2017-12-06T06:12:01.276Z,20.00
2017-12-06T06:13:01.256Z,20.20
2017-12-06T06:14:01.248Z,19.50
2017-12-06T06:15:01.219Z,19.00
2017-12-06T06:16:01.209Z,20.80
2017-12-06T06:17:01.188Z,19.10
2017-12-06T06:18:01.164Z,19.30
2017-12-06T06:19:01.148Z,18.10
2017-12-06T06:20:01.133Z,18.60
2017-12-06T06:21:01.110Z,18.90
2017-12-06T06:22:01.091Z,18.80
2017-12-06T06:23:01.082Z,19.90
2017-12-06T06:24:01.066Z,20.30
2017-12-06T06:25:01.049Z,21.50
2017-12-06T06:26:01.022Z,20.40
2017-12-06T06:27:01.006Z,20.20
2017-12-06T06:28:00.988Z,19.90
2017-12-06T06:29:00.970Z,19.40
2017-12-06T06:30:00.951Z,20.60
2017-12-06T06:31:00.932Z,20.10
2017-12-06T06:32:00.911Z,18.70
2017-12-06T06:33:00.897Z,18.20
2017-12-06T06:34:00.878Z,19.20
2017-12-06T06:35:00.854Z,19.50
2017-12-06T06:36:00.836Z,19.30
2017-12-06T06:37:00.823Z,19.30
2017-12-06T06:38:00.800Z,17.80
2017-12-06T06:39:00.783Z,18.40
2017-12-06T06:40:00.768Z,19.00
2017-12-06T06:41:00.746Z,19.40
2017-12-06T06:42:00.729Z,19.50
2017-12-06T06:43:00.714Z,18.60
2017-12-06T06:44:00.693Z,20.10
2017-12-06T06:45:00.674Z,18.90
2017-12-06T06:46:00.660Z,19.80
2017-12-06T06:47:00.637Z,19.20
2017-12-06T06:48:00.624Z,18.80
2017-12-06T06:49:00.601Z,17.90
2017-12-06T06:50:00.595Z,19.10
2017-12-06T06:51:00.566Z,18.90
2017-12-06T06:52:00.554Z,18.30
2017-12-06T06:53:00.536Z,19.40
2017-12-06T06:54:00.511Z,18.70
2017-12-06T06:55:00.492Z,19.50
2017-12-06T06:56:00.473Z,19.60
2017-12-06T06:57:00.469Z,19.30
2017-12-06T06:58:00.436Z,18.10
2017-12-06T06:59:00.421Z,20.20
2017-12-06T07:00:00.401Z,18.70
2017-12-06T07:01:00.390Z,18.60
2017-12-06T07:02:00.365Z,18.30
2017-12-06T07:03:00.355Z,18.70
2017-12-06T07:04:00.330Z,18.50
2017-12-06T07:05:00.322Z,19.00
2017-12-06T07:06:00.293Z,19.90
2017-12-06T07:07:00.276Z,18.90
2017-12-06T07:08:00.258Z,20.00
2017-12-06T07:09:00.244Z,35.40
2017-12-06T07:10:00.233Z,19.50
2017-12-06T07:11:00.203Z,18.40
2017-12-06T07:12:00.186Z,18.80
2017-12-06T07:13:00.176Z,19.00
2017-12-06T07:14:00.154Z,18.60
2017-12-06T07:15:00.131Z,18.40
2017-12-06T07:16:00.112Z,18.70
2017-12-06T07:17:00.093Z,18.60
2017-12-06T07:18:00.079Z,18.80
2017-12-06T07:19:00.059Z,18.30
2017-12-06T07:20:00.044Z,18.30
2017-12-06T07:21:00.023Z,17.40
2017-12-06T07:22:00.002Z,19.20
2017-12-06T07:22:59.984Z,18.30
2017-12-06T07:23:59.965Z,20.80
2017-12-06T07:24:59.958Z,19.60
2017-12-06T07:25:59.928Z,20.50
2017-12-06T07:26:59.916Z,21.30
2017-12-06T07:27:59.901Z,21.10
2017-12-06T07:28:59.876Z,21.00
2017-12-06T07:29:59.861Z,20.20
2017-12-06T07:30:59.839Z,20.30
2017-12-06T07:31:59.820Z,19.90
2017-12-06T07:32:59.802Z,18.30
2017-12-06T07:33:59.783Z,18.20
2017-12-06T07:34:59.765Z,19.10
2017-12-06T07:35:59.756Z,19.00
2017-12-06T07:36:59.733Z,19.00
2017-12-06T07:37:59.712Z,18.90
2017-12-06T07:38:59.693Z,18.40
2017-12-06T07:39:59.676Z,18.70
2017-12-06T07:40:59.657Z,18.20
2017-12-06T07:41:59.638Z,19.20
2017-12-06T07:42:59.627Z,18.40
2017-12-06T07:43:59.602Z,18.80
2017-12-06T07:44:59.586Z,18.70
2017-12-06T07:45:59.566Z,18.30
2017-12-06T07:46:59.549Z,18.60
2017-12-06T07:47:59.530Z,18.50
2017-12-06T07:48:59.514Z,18.00
2017-12-06T07:49:59.495Z,18.30
2017-12-06T07:50:59.477Z,18.40
2017-12-06T07:51:59.458Z,18.50
2017-12-06T07:52:59.444Z,17.70
2017-12-06T07:53:59.421Z,19.10
2017-12-06T07:54:59.405Z,18.00
2017-12-06T07:55:59.386Z,18.30
2017-12-06T07:56:59.390Z,18.40
2017-12-06T07:57:59.348Z,18.10
2017-12-06T07:58:59.330Z,17.40
2017-12-06T07:59:59.313Z,17.70
2017-12-06T08:00:59.300Z,17.30
2017-12-06T08:01:59.276Z,17.60
2017-12-06T08:02:59.264Z,18.70
2017-12-06T08:03:59.246Z,18.80
2017-12-06T08:04:59.229Z,20.00
2017-12-06T08:05:59.203Z,19.00
2017-12-06T08:06:59.185Z,18.80
2017-12-06T08:07:59.167Z,18.50
2017-12-06T08:08:59.151Z,19.50
2017-12-06T08:09:59.131Z,18.00
2017-12-06T08:10:59.114Z,18.10
2017-12-06T08:11:59.098Z,18.70
2017-12-06T08:12:59.076Z,18.40
2017-12-06T08:13:59.058Z,19.20
2017-12-06T08:14:59.045Z,17.60
2017-12-06T08:15:59.022Z,18.90
2017-12-06T08:16:59.016Z,18.80
2017-12-06T08:17:58.987Z,18.50
2017-12-06T08:18:58.976Z,19.00
2017-12-06T08:19:58.950Z,19.10
2017-12-06T08:20:58.932Z,19.40
2017-12-06T08:21:58.957Z,18.90
2017-12-06T08:22:58.901Z,18.90
2017-12-06T08:23:58.882Z,20.00
2017-12-06T08:24:58.867Z,19.70
2017-12-06T08:25:58.840Z,18.50
2017-12-06T08:26:58.823Z,19.80
2017-12-06T08:27:58.805Z,20.00
2017-12-06T08:28:58.795Z,19.80
2017-12-06T08:29:58.770Z,18.70
2017-12-06T08:30:58.752Z,18.90
2017-12-06T08:31:58.742Z,19.30
2017-12-06T08:32:58.722Z,19.50
2017-12-06T08:33:58.700Z,19.00
2017-12-06T08:34:58.681Z,19.10
2017-12-06T08:35:58.663Z,18.10
2017-12-06T08:36:58.646Z,19.20
2017-12-06T08:37:58.627Z,17.80
2017-12-06T08:38:58.610Z,18.20
2017-12-06T08:39:58.593Z,17.90
2017-12-06T08:40:58.573Z,16.50
2017-12-06T08:41:58.562Z,17.20
2017-12-06T08:42:58.537Z,16.80
2017-12-06T08:43:58.518Z,17.20
2017-12-06T08:44:58.501Z,17.30
2017-12-06T08:45:58.489Z,17.50
2017-12-06T08:46:58.472Z,17.00
2017-12-06T08:47:58.448Z,17.20
2017-12-06T08:48:58.429Z,17.70
2017-12-06T08:49:58.410Z,17.50
2017-12-06T08:50:58.392Z,16.60
2017-12-06T08:51:58.379Z,16.90
2017-12-06T08:52:58.356Z,16.70
2017-12-06T08:53:58.345Z,16.10
2017-12-06T08:54:58.327Z,17.00
2017-12-06T08:55:58.304Z,17.00
2017-12-06T08:56:58.287Z,17.20
2017-12-06T08:57:58.271Z,17.60
2017-12-06T08:58:58.252Z,16.90
2017-12-06T08:59:58.232Z,16.60
2017-12-06T09:00:58.216Z,17.30
2017-12-06T09:01:58.197Z,17.90
2017-12-06T09:02:58.181Z,17.30
2017-12-06T09:03:58.163Z,17.70
2017-12-06T09:04:58.145Z,17.90
2017-12-06T09:05:58.134Z,17.20
2017-12-06T09:06:58.110Z,17.10
2017-12-06T09:07:58.090Z,18.70
2017-12-06T09:08:58.074Z,17.10
2017-12-06T09:09:58.057Z,18.50
2017-12-06T09:10:58.093Z,17.80
2017-12-06T09:11:58.022Z,18.40
2017-12-06T09:12:58.002Z,18.30
2017-12-06T09:13:57.988Z,18.90
2017-12-06T09:14:57.970Z,17.80
2017-12-06T09:15:57.950Z,17.60
2017-12-06T09:16:57.932Z,17.20
2017-12-06T09:17:57.913Z,17.30
2017-12-06T09:18:57.901Z,18.30
2017-12-06T09:19:57.878Z,18.50
2017-12-06T09:20:57.862Z,18.30
2017-12-06T09:21:57.843Z,18.60
2017-12-06T09:22:57.826Z,17.90
2017-12-06T09:23:57.815Z,18.20
2017-12-06T09:24:57.791Z,17.80
2017-12-06T09:25:57.778Z,16.50
2017-12-06T09:26:57.760Z,16.90
2017-12-06T09:27:57.739Z,16.70
2017-12-06T09:28:57.721Z,16.80
2017-12-06T09:29:57.710Z,17.20
2017-12-06T09:30:57.690Z,17.10
2017-12-06T09:31:57.668Z,16.30
2017-12-06T09:32:57.654Z,17.00
2017-12-06T09:33:57.632Z,17.40
2017-12-06T09:34:57.613Z,18.50
2017-12-06T09:35:57.595Z,16.90
2017-12-06T09:36:57.586Z,17.90
2017-12-06T09:37:57.560Z,17.50
2017-12-06T09:38:57.542Z,17.30
2017-12-06T09:39:57.526Z,17.30
2017-12-06T09:40:57.512Z,16.30
2017-12-06T09:41:57.491Z,15.90
2017-12-06T09:42:57.480Z,17.50
2017-12-06T09:43:57.460Z,17.30
2017-12-06T09:44:57.438Z,17.90
2017-12-06T09:45:57.422Z,17.60
2017-12-06T09:46:57.400Z,17.90
2017-12-06T09:47:57.383Z,18.10
2017-12-06T09:48:57.374Z,17.20
2017-12-06T09:49:57.352Z,17.30
2017-12-06T09:50:57.331Z,17.30
2017-12-06T09:51:57.317Z,16.40
2017-12-06T09:52:57.300Z,16.90
2017-12-06T09:53:57.283Z,15.80
2017-12-06T09:54:57.258Z,15.90
2017-12-06T09:55:57.247Z,17.30
2017-12-06T09:56:57.225Z,16.80
2017-12-06T09:57:57.210Z,16.60
2017-12-06T09:58:57.191Z,16.40
2017-12-06T09:59:57.180Z,16.60
2017-12-06T10:00:57.153Z,15.70
2017-12-06T10:01:57.139Z,16.10
2017-12-06T10:02:57.117Z,16.00
2017-12-06T10:03:57.104Z,16.10
2017-12-06T10:04:57.085Z,16.40
2017-12-06T10:05:57.066Z,16.20
2017-12-06T10:06:57.051Z,16.40
2017-12-06T10:07:57.030Z,16.40
2017-12-06T10:08:57.012Z,17.00
2017-12-06T10:09:56.993Z,16.20
2017-12-06T10:10:56.976Z,17.50
2017-12-06T10:11:56.960Z,16.20
2017-12-06T10:12:56.941Z,15.70
2017-12-06T10:13:56.926Z,16.70
2017-12-06T10:14:56.909Z,16.50
2017-12-06T10:15:56.888Z,15.40
2017-12-06T10:16:56.871Z,16.70
2017-12-06T10:17:56.853Z,17.20
2017-12-06T10:18:56.837Z,16.20
2017-12-06T10:19:56.820Z,16.60
2017-12-06T10:20:56.805Z,16.30
2017-12-06T10:21:56.786Z,16.60
2017-12-06T10:22:56.771Z,16.70
2017-12-06T10:23:56.750Z,16.90
2017-12-06T10:24:56.738Z,16.80
2017-12-06T10:25:56.713Z,17.80
2017-12-06T10:26:56.698Z,16.90
2017-12-06T10:27:56.678Z,17.70
2017-12-06T10:28:56.664Z,16.20
2017-12-06T10:29:56.644Z,15.70
2017-12-06T10:30:56.629Z,16.70
2017-12-06T10:31:56.610Z,15.90
2017-12-06T10:32:56.593Z,16.80
2017-12-06T10:33:56.572Z,16.30
2017-12-06T10:34:56.563Z,16.80
2017-12-06T10:35:56.543Z,17.10
2017-12-06T10:36:56.523Z,18.30
2017-12-06T10:37:56.510Z,17.10
2017-12-06T10:38:56.490Z,17.50
2017-12-06T10:39:56.469Z,17.00
2017-12-06T10:40:56.454Z,15.70
2017-12-06T10:41:56.440Z,17.30
2017-12-06T10:42:56.421Z,16.70
2017-12-06T10:43:56.406Z,16.70
2017-12-06T10:44:56.391Z,17.00
2017-12-06T10:45:56.363Z,17.00
2017-12-06T10:46:56.348Z,17.30
2017-12-06T10:47:56.335Z,17.80
2017-12-06T10:48:56.321Z,17.00
2017-12-06T10:49:56.294Z,17.30
2017-12-06T10:50:56.279Z,17.40
2017-12-06T10:51:56.260Z,17.90
2017-12-06T10:52:56.248Z,18.60
2017-12-06T10:53:56.230Z,18.10
2017-12-06T10:54:56.211Z,18.60
2017-12-06T10:55:56.191Z,18.00
2017-12-06T10:56:56.176Z,18.50
2017-12-06T10:57:56.227Z,17.70
2017-12-06T10:58:56.148Z,16.50
2017-12-06T10:59:56.123Z,17.20
2017-12-06T11:00:56.104Z,17.60
2017-12-06T11:01:56.087Z,17.50
2017-12-06T11:02:56.071Z,16.80
2017-12-06T11:03:56.061Z,18.20
2017-12-06T11:04:56.036Z,18.30
2017-12-06T11:05:56.058Z,18.20
2017-12-06T11:06:56.008Z,19.30
2017-12-06T11:07:55.984Z,19.60
2017-12-06T11:08:55.969Z,17.70
2017-12-06T11:09:55.949Z,20.60
2017-12-06T11:10:55.938Z,19.30
2017-12-06T11:11:55.915Z,19.50
2017-12-06T11:12:55.897Z,18.90
2017-12-06T11:13:55.884Z,19.30
2017-12-06T11:14:55.862Z,19.80
2017-12-06T11:15:55.844Z,19.40
2017-12-06T11:16:55.829Z,18.40
2017-12-06T11:17:55.810Z,18.70
2017-12-06T11:18:55.792Z,18.80
2017-12-06T11:19:55.776Z,18.60
2017-12-06T11:20:55.760Z,19.70
2017-12-06T11:21:55.748Z,18.80
2017-12-06T11:22:55.724Z,18.90
2017-12-06T11:23:55.712Z,19.90
2017-12-06T11:24:55.692Z,19.10
2017-12-06T11:25:55.673Z,19.20
2017-12-06T11:26:55.658Z,20.30
2017-12-06T11:27:55.639Z,20.10
2017-12-06T11:28:55.622Z,20.40
2017-12-06T11:29:55.607Z,20.90
2017-12-06T11:30:55.594Z,20.30
2017-12-06T11:31:55.570Z,19.70
2017-12-06T11:32:55.551Z,20.50
2017-12-06T11:33:55.535Z,20.90
2017-12-06T11:34:55.519Z,20.40
2017-12-06T11:35:55.501Z,20.70
2017-12-06T11:36:55.489Z,20.60
2017-12-06T11:37:55.466Z,19.80
2017-12-06T11:38:55.457Z,20.70
2017-12-06T11:39:55.436Z,21.10
2017-12-06T11:40:55.416Z,21.30
2017-12-06T11:41:55.405Z,21.50
2017-12-06T11:42:55.379Z,21.30
2017-12-06T11:43:55.368Z,21.90
2017-12-06T11:44:55.352Z,21.90
2017-12-06T11:45:55.329Z,21.00
2017-12-06T11:46:55.311Z,20.30
2017-12-06T11:47:55.293Z,20.70
2017-12-06T11:48:55.278Z,21.10
2017-12-06T11:49:55.260Z,21.50
2017-12-06T11:50:55.244Z,21.70
2017-12-06T11:51:55.237Z,20.60
2017-12-06T11:52:55.208Z,22.30
2017-12-06T11:53:55.192Z,22.80
2017-12-06T11:54:55.176Z,22.50
2017-12-06T11:55:55.156Z,22.30
2017-12-06T11:56:55.145Z,22.00
2017-12-06T11:57:55.122Z,21.00
2017-12-06T11:58:55.113Z,21.70
2017-12-06T11:59:55.091Z,21.60
2017-12-06T12:00:55.071Z,21.80
2017-12-06T12:01:55.057Z,21.90
2017-12-06T12:02:55.039Z,22.00
2017-12-06T12:03:55.021Z,21.40
2017-12-06T12:04:55.009Z,23.40
2017-12-06T12:05:54.985Z,22.70
2017-12-06T12:06:54.969Z,22.40
2017-12-06T12:07:54.959Z,22.40
2017-12-06T12:08:54.935Z,23.70
2017-12-06T12:09:54.918Z,22.40
2017-12-06T12:10:54.899Z,23.40
2017-12-06T12:11:54.883Z,23.30
2017-12-06T12:12:54.866Z,21.40
2017-12-06T12:13:54.849Z,22.30
2017-12-06T12:14:54.831Z,22.50
2017-12-06T12:15:54.821Z,22.80
2017-12-06T12:16:54.800Z,21.00
2017-12-06T12:17:54.786Z,22.60
2017-12-06T12:18:54.764Z,22.50
2017-12-06T12:19:54.747Z,22.20
2017-12-06T12:20:54.731Z,23.00
2017-12-06T12:21:54.718Z,22.70
2017-12-06T12:22:54.696Z,22.50
2017-12-06T12:23:54.676Z,23.00
2017-12-06T12:24:54.661Z,21.90
2017-12-06T12:25:54.643Z,23.40
2017-12-06T12:26:54.632Z,23.60
2017-12-06T12:27:54.610Z,22.80
2017-12-06T12:28:54.593Z,23.20
2017-12-06T12:29:54.576Z,23.00
2017-12-06T12:30:54.559Z,21.80
2017-12-06T12:31:54.543Z,23.50
2017-12-06T12:32:54.524Z,21.60
2017-12-06T12:33:54.507Z,22.40
2017-12-06T12:34:54.490Z,23.70
2017-12-06T12:35:54.478Z,23.10
2017-12-06T12:36:54.459Z,23.50
2017-12-06T12:37:54.439Z,22.70
2017-12-06T12:38:54.423Z,21.20
2017-12-06T12:39:54.404Z,20.60
2017-12-06T12:40:54.400Z,21.70
2017-12-06T12:41:54.370Z,21.80
2017-12-06T12:42:54.353Z,23.00
2017-12-06T12:43:54.348Z,22.70
2017-12-06T12:44:54.319Z,22.50
2017-12-06T12:45:54.308Z,22.60
2017-12-06T12:46:54.288Z,22.90
2017-12-06T12:47:54.269Z,22.70
2017-12-06T12:48:54.257Z,21.90
2017-12-06T12:49:54.234Z,22.80
2017-12-06T12:50:54.219Z,23.70
2017-12-06T12:51:54.206Z,22.20